If you wish to contribute or participate in the discussions about articles you are invited to join SKYbrary as a registered user

 Actions

Ningbo Lishe International

From SKYbrary Wiki

ZSNB
Airport
ICAO: ZSNB
Summary
Name Ningbo Lishe International
Region Asia and Pacific
Territory China CN.gif
Location Ningbo, Yangtze River
Serving
Coordinates 29° 49' 36.00" N, 121° 27' 43.00" E
Runways
Designator Length Width Surface ROPS
13/31 3200 m10,498.688 ft <br /> 45 m147.638 ft <br /> CON yes/yes


METAR
Observation ZSNB 301000Z 12004MPS 9999 -RA BKN033 31/25 Q0999 NOSIG
Station NINGBO/LISHE
Date/Time 30 July 2021 10:00:00
Wind direction 120°
Wind speed kts
Lowest cloud amount broken clouds
Temperature 31°C
Dew point 25°C
Humidity 70%
QNH 999 hPa
Weather condition light rain

Ningbo Lishe International Airport (IATA: NGB) is the principal airport serving Ningbo, a major city in the Yangtze River Delta region.